Time;durP1;ratioP1;P1;durP2;ratioP2;P2;SDS_P1;SDS_P2;PMS_P1;PMS_P2;Temp;Humidity;BMP_temperature;BMP_pressure;BME280_temperature;BME280_humidity;BME280_pressure;Samples;Min_cycle;Max_cycle;Signal;HPM_P1;HPM_P2
2022/09/07 00:02:32;;;;;;;20.75;9.02;;;;;17.50;96267.00;;;;8421631;28;20544;-69
2022/09/07 00:06:35;;;;;;;15.80;8.35;;;;;17.50;96269.00;;;;8422608;28;20229;-69
2022/09/07 00:10:39;;;;;;;14.82;8.38;;;;;17.50;96272.00;;;;8424266;28;20241;-69
2022/09/07 00:14:43;;;;;;;13.73;8.20;;;;;17.50;96255.00;;;;8423244;28;20306;-69
2022/09/07 00:18:47;;;;;;;14.90;8.95;;;;;17.50;96263.00;;;;8423942;28;20583;-69
2022/09/07 00:22:50;;;;;;;14.48;8.55;;;;;17.50;96264.00;;;;8423116;28;20230;-69
2022/09/07 00:27:27;;;;;;;16.90;8.02;;;;;17.50;96257.00;;;;8422654;28;20219;-69
2022/09/07 00:31:32;;;;;;;14.98;8.57;;;;;17.40;96264.00;;;;8423452;28;20227;-69
2022/09/07 00:35:39;;;;;;;13.43;7.95;;;;;17.40;96259.00;;;;8423733;28;20677;-69
2022/09/07 00:39:43;;;;;;;12.73;8.93;;;;;17.50;96259.00;;;;8429485;28;20223;-69
2022/09/07 00:44:23;;;;;;;10.35;8.13;;;;;17.40;96250.00;;;;8427839;27;20222;-70
2022/09/07 00:48:32;;;;;;;14.82;7.10;;;;;17.30;96256.00;;;;8436859;27;20226;-70
2022/09/07 00:53:03;;;;;;;12.88;7.50;;;;;17.30;96246.00;;;;8422083;27;20235;-70
2022/09/07 00:57:11;;;;;;;12.05;7.30;;;;;17.30;96248.00;;;;8428613;28;20207;-69
2022/09/07 01:01:45;;;;;;;14.20;8.07;;;;;17.20;96247.00;;;;8424690;28;20657;-69
2022/09/07 01:05:55;;;;;;;16.85;8.65;;;;;17.20;96252.00;;;;8424241;28;20215;-69
2022/09/07 01:10:25;;;;;;;12.73;7.63;;;;;17.20;96266.00;;;;8429045;28;20556;-70
2022/09/07 01:14:30;;;;;;;12.95;7.10;;;;;17.10;96272.00;;;;8426508;28;20313;-68
2022/09/07 01:19:13;;;;;;;12.13;8.38;;;;;17.10;96265.00;;;;8429100;28;20706;-70
2022/09/07 01:23:45;;;;;;;12.13;7.45;;;;;17.20;96259.00;;;;8428685;28;20291;-69
2022/09/07 01:28:11;;;;;;;17.20;8.45;;;;;17.10;96254.00;;;;8427182;28;20225;-69
2022/09/07 01:32:25;;;;;;;18.40;8.50;;;;;17.00;96250.00;;;;8426998;28;20243;-69
2022/09/07 01:36:52;;;;;;;16.15;10.10;;;;;16.90;96250.00;;;;8427252;28;20313;-69
2022/09/07 01:41:02;;;;;;;17.58;9.60;;;;;17.00;96252.00;;;;8427437;28;20271;-70
2022/09/07 01:45:11;;;;;;;16.08;9.02;;;;;17.00;96249.00;;;;8427569;28;20668;-69
2022/09/07 01:49:46;;;;;;;20.55;11.18;;;;;16.90;96248.00;;;;8425961;28;20212;-69
2022/09/07 01:53:53;;;;;;;22.05;15.07;;;;;17.00;96251.00;;;;8425386;28;20227;-70
2022/09/07 01:58:24;;;;;;;23.73;15.25;;;;;17.10;96245.00;;;;8427290;28;20261;-70
2022/09/07 02:02:31;;;;;;;25.90;15.10;;;;;17.20;96247.00;;;;8427122;28;20605;-70
2022/09/07 02:06:40;;;;;;;25.98;15.73;;;;;17.30;96236.00;;;;8425495;28;20215;-70
2022/09/07 02:11:13;;;;;;;32.97;17.13;;;;;17.50;96239.00;;;;8425924;28;20227;-70
2022/09/07 02:15:20;;;;;;;29.67;15.50;;;;;17.60;96239.00;;;;8426309;28;20666;-69
2022/09/07 02:19:30;;;;;;;14.02;9.90;;;;;17.60;96243.00;;;;8424197;28;20215;-69
2022/09/07 02:24:04;;;;;;;14.07;8.38;;;;;17.40;96242.00;;;;8426618;28;20665;-69
2022/09/07 02:28:10;;;;;;;17.15;9.02;;;;;17.20;96236.00;;;;8425132;28;20659;-70
2022/09/07 02:32:13;;;;;;;17.02;7.20;;;;;17.10;96244.00;;;;8427487;28;20227;-69
2022/09/07 02:36:59;;;;;;;14.43;7.53;;;;;17.00;96245.00;;;;8428370;28;20237;-70
2022/09/07 02:41:04;;;;;;;13.38;8.55;;;;;16.90;96250.00;;;;8422493;28;20306;-69
2022/09/07 02:45:43;;;;;;;11.77;8.15;;;;;16.90;96242.00;;;;8425293;28;20221;-69
2022/09/07 02:50:06;;;;;;;15.50;9.25;;;;;17.00;96241.00;;;;8423508;28;20306;-69
2022/09/07 02:54:38;;;;;;;15.63;10.15;;;;;17.00;96248.00;;;;8425826;28;20215;-69
2022/09/07 02:58:56;;;;;;;23.58;13.43;;;;;16.90;96247.00;;;;8426782;27;20296;-70
2022/09/07 03:03:23;;;;;;;17.73;11.27;;;;;16.90;96249.00;;;;8438362;27;20218;-70
2022/09/07 03:07:55;;;;;;;24.40;13.07;;;;;16.90;96250.00;;;;8424953;28;20264;-70
2022/09/07 03:12:40;;;;;;;21.65;13.45;;;;;17.00;96246.00;;;;8413646;28;20574;-69
2022/09/07 03:16:56;;;;;;;19.10;11.45;;;;;17.10;96239.00;;;;8426593;27;20230;-69
2022/09/07 03:21:30;;;;;;;21.45;13.35;;;;;17.20;96246.00;;;;8429210;27;20305;-69
2022/09/07 03:26:06;;;;;;;19.33;12.13;;;;;17.30;96261.00;;;;8427687;27;20208;-69
2022/09/07 03:30:49;;;;;;;25.65;15.73;;;;;17.30;96266.00;;;;8423012;28;20318;-69
2022/09/07 03:35:22;;;;;;;17.60;10.77;;;;;17.30;96261.00;;;;8421283;28;20708;-69
2022/09/07 03:39:25;;;;;;;17.40;9.75;;;;;17.20;96261.00;;;;8421151;28;20261;-70
2022/09/07 03:44:02;;;;;;;19.08;10.68;;;;;17.20;96259.00;;;;8419226;28;20560;-69
2022/09/07 03:48:05;;;;;;;15.98;10.55;;;;;17.30;96248.00;;;;8423720;28;20314;-68
2022/09/07 03:52:45;;;;;;;18.80;11.40;;;;;17.30;96247.00;;;;8419304;28;20231;-68
2022/09/07 03:56:50;;;;;;;25.55;13.30;;;;;17.30;96253.00;;;;8420700;28;20223;-69
2022/09/07 04:01:25;;;;;;;18.55;12.75;;;;;17.40;96238.00;;;;8422837;28;20219;-69
2022/09/07 04:05:28;;;;;;;33.15;18.30;;;;;17.60;96244.00;;;;8420791;28;20211;-69
2022/09/07 04:10:06;;;;;;;26.95;16.05;;;;;17.70;96234.00;;;;8421782;28;20227;-69
2022/09/07 04:14:11;;;;;;;32.40;20.20;;;;;17.70;96230.00;;;;8429325;28;20605;-69
2022/09/07 04:18:44;;;;;;;30.02;18.90;;;;;17.80;96238.00;;;;8429275;28;20243;-68
2022/09/07 04:22:50;;;;;;;34.40;19.48;;;;;17.80;96233.00;;;;8423603;28;20302;-68
2022/09/07 04:26:56;;;;;;;33.63;21.23;;;;;17.90;96234.00;;;;8428366;28;20302;-68
2022/09/07 04:31:35;;;;;;;35.65;20.88;;;;;17.90;96219.00;;;;8428489;28;20367;-67
2022/09/07 04:35:39;;;;;;;31.95;20.60;;;;;17.90;96214.00;;;;8426053;28;20291;-69
2022/09/07 04:39:44;;;;;;;43.08;20.98;;;;;17.90;96229.00;;;;8425798;28;20662;-68
2022/09/07 04:43:48;;;;;;;33.35;20.23;;;;;17.90;96234.00;;;;8444797;27;20221;-68
2022/09/07 04:47:53;;;;;;;35.03;19.75;;;;;17.90;96239.00;;;;8426596;27;20229;-68
2022/09/07 04:52:26;;;;;;;18.80;13.15;;;;;17.80;96241.00;;;;8431713;28;20235;-68
2022/09/07 04:57:03;;;;;;;13.15;9.48;;;;;17.60;96237.00;;;;8432639;28;20298;-68
2022/09/07 05:01:07;;;;;;;21.50;12.60;;;;;17.40;96246.00;;;;8426402;28;20219;-67
2022/09/07 05:05:43;;;;;;;19.75;12.80;;;;;17.50;96246.00;;;;8422250;28;20325;-68
2022/09/07 05:10:17;;;;;;;16.88;11.65;;;;;17.70;96256.00;;;;8427622;28;20424;-68
2022/09/07 05:14:57;;;;;;;24.38;13.20;;;;;17.90;96254.00;;;;8424582;28;20223;-68
2022/09/07 05:19:02;;;;;;;25.10;14.23;;;;;18.10;96253.00;;;;8424387;28;20310;-67
2022/09/07 05:23:36;;;;;;;22.65;15.00;;;;;18.20;96265.00;;;;8422513;28;20298;-68
2022/09/07 05:27:41;;;;;;;24.45;15.65;;;;;18.40;96266.00;;;;8424815;28;20219;-68
2022/09/07 05:31:44;;;;;;;21.88;14.90;;;;;18.50;96271.00;;;;8419683;28;20306;-68
2022/09/07 05:36:22;;;;;;;23.17;14.15;;;;;18.50;96268.00;;;;8426487;28;20223;-68
2022/09/07 05:40:30;;;;;;;20.30;13.85;;;;;18.60;96281.00;;;;8435709;27;20216;-68
2022/09/07 05:45:02;;;;;;;22.40;13.35;;;;;18.70;96273.00;;;;8419463;27;20236;-69
2022/09/07 05:49:10;;;;;;;20.50;12.57;;;;;18.90;96282.00;;;;8422988;27;20241;-69
2022/09/07 05:53:16;;;;;;;17.63;12.20;;;;;19.10;96284.00;;;;8421848;28;20239;-69
2022/09/07 05:57:26;;;;;;;17.92;9.70;;;;;19.20;96299.00;;;;8422228;28;20262;-70
2022/09/07 06:01:34;;;;;;;18.85;10.25;;;;;19.20;96287.00;;;;8415522;28;20230;-70
2022/09/07 06:06:09;;;;;;;11.93;9.40;;;;;19.40;96286.00;;;;8418180;28;20672;-67
2022/09/07 06:10:24;;;;;;;19.27;11.73;;;;;19.70;96294.00;;;;8423491;28;20569;-68
2022/09/07 06:15:00;;;;;;;19.52;10.55;;;;;19.80;96303.00;;;;8425858;28;20215;-67
2022/09/07 06:19:39;;;;;;;19.48;12.52;;;;;20.00;96295.00;;;;8420454;28;20633;-68
2022/09/07 06:23:43;;;;;;;20.92;12.95;;;;;20.30;96303.00;;;;8427368;28;20629;-67
2022/09/07 06:28:20;;;;;;;15.00;11.20;;;;;20.50;96310.00;;;;8420225;28;20271;-66
2022/09/07 06:32:57;;;;;;;19.40;13.48;;;;;20.60;96325.00;;;;8417086;28;20236;-66
2022/09/07 06:37:34;;;;;;;16.35;11.35;;;;;20.60;96327.00;;;;8425694;28;20221;-66
2022/09/07 06:41:39;;;;;;;17.85;10.18;;;;;20.70;96323.00;;;;8425932;28;20219;-66
2022/09/07 06:46:15;;;;;;;18.33;10.02;;;;;20.80;96306.00;;;;8424891;28;20718;-66
2022/09/07 06:50:38;;;;;;;15.43;9.55;;;;;21.00;96303.00;;;;8434529;27;20233;-65
2022/09/07 06:55:15;;;;;;;14.68;10.05;;;;;21.10;96298.00;;;;8426106;27;20275;-65
2022/09/07 06:59:53;;;;;;;14.75;9.10;;;;;21.10;96316.00;;;;8423105;28;20294;-67
2022/09/07 07:03:57;;;;;;;13.60;8.77;;;;;21.40;96305.00;;;;8424898;28;20215;-66
2022/09/07 07:08:34;;;;;;;14.75;8.60;;;;;21.70;96308.00;;;;8428529;28;20223;-67
2022/09/07 07:13:09;;;;;;;12.88;7.90;;;;;21.90;96297.00;;;;8446270;27;20232;-67
2022/09/07 07:17:14;;;;;;;12.10;7.45;;;;;22.20;96305.00;;;;8427850;28;20219;-66
2022/09/07 07:21:17;;;;;;;10.20;7.07;;;;;22.60;96328.00;;;;8426875;28;20234;-67
2022/09/07 07:25:22;;;;;;;8.88;6.78;;;;;22.90;96312.00;;;;8427869;28;20229;-66
2022/09/07 07:29:56;;;;;;;9.70;7.05;;;;;23.40;96313.00;;;;8427048;28;20572;-66
2022/09/07 07:34:34;;;;;;;13.27;6.43;;;;;24.00;96318.00;;;;8423161;28;20712;-67
2022/09/07 07:38:37;;;;;;;10.18;6.30;;;;;24.60;96336.00;;;;8420265;28;20220;-66
2022/09/07 07:43:47;;;;;;;11.15;6.88;;;;;24.80;96330.00;;;;8422920;28;20230;-66
2022/09/07 07:48:24;;;;;;;11.20;6.78;;;;;25.10;96334.00;;;;8425763;28;20298;-64
2022/09/07 07:53:02;;;;;;;11.38;7.22;;;;;25.30;96318.00;;;;8424914;28;20268;-64
2022/09/07 07:58:12;;;;;;;13.80;6.57;;;;;25.60;96337.00;;;;8419599;28;20507;-70
2022/09/07 08:02:49;;;;;;;15.40;7.75;;;;;26.10;96329.00;;;;8437531;28;20218;-69
2022/09/07 08:06:53;;;;;;;12.10;6.32;;;;;26.80;96333.00;;;;8421684;28;20651;-67
2022/09/07 08:11:30;;;;;;;9.45;5.88;;;;;27.50;96324.00;;;;8422827;28;20231;-67
2022/09/07 08:15:40;;;;;;;15.73;5.68;;;;;27.50;96324.00;;;;8422624;28;20271;-68
2022/09/07 08:20:08;;;;;;;9.95;5.65;;;;;27.30;96326.00;;;;8426769;28;20226;-68
2022/09/07 08:24:44;;;;;;;15.88;5.93;;;;;26.90;96320.00;;;;8419159;28;20686;-68
2022/09/07 08:29:23;;;;;;;7.00;4.80;;;;;26.70;96319.00;;;;8425603;28;20226;-68
2022/09/07 08:33:26;;;;;;;10.90;4.57;;;;;26.40;96323.00;;;;8413360;28;20984;-69
2022/09/07 08:37:29;;;;;;;5.82;4.05;;;;;26.10;96328.00;;;;8444435;28;20211;-69
2022/09/07 08:41:47;;;;;;;7.40;3.95;;;;;26.00;96322.00;;;;8442630;28;20211;-69
2022/09/07 08:45:54;;;;;;;9.35;4.57;;;;;26.00;96326.00;;;;8423281;28;20234;-69
2022/09/07 08:50:04;;;;;;;11.60;4.70;;;;;26.10;96322.00;;;;8420134;28;20227;-69
2022/09/07 08:54:12;;;;;;;8.38;4.20;;;;;26.20;96323.00;;;;8425659;28;20224;-69
2022/09/07 08:58:21;;;;;;;9.25;4.38;;;;;26.40;96333.00;;;;8428470;28;20227;-69
2022/09/07 09:07:39;;;;;;;7.70;4.32;;;;;26.60;96332.00;;;;8430092;28;20297;-68
2022/09/07 09:11:52;;;;;;;7.63;4.10;;;;;26.60;96323.00;;;;8428174;28;20794;-69
2022/09/07 09:16:20;;;;;;;12.07;4.00;;;;;26.70;96322.00;;;;8430479;28;20218;-69
2022/09/07 09:20:29;;;;;;;8.10;4.50;;;;;27.00;96314.00;;;;8431505;28;20225;-69
2022/09/07 09:25:00;;;;;;;5.75;3.67;;;;;27.30;96315.00;;;;8423964;28;20637;-68
2022/09/07 09:29:14;;;;;;;8.13;4.10;;;;;28.10;96321.00;;;;8427888;28;20216;-69
2022/09/07 09:33:19;;;;;;;7.65;3.45;;;;;29.20;96326.00;;;;8424594;28;20679;-69
2022/09/07 09:37:53;;;;;;;5.75;3.58;;;;;29.90;96327.00;;;;8430131;28;20281;-70
2022/09/07 09:41:58;;;;;;;14.73;3.63;;;;;30.40;96324.00;;;;8420617;28;20666;-69
2022/09/07 09:46:03;;;;;;;8.55;4.25;;;;;30.70;96325.00;;;;8430742;28;20219;-69
2022/09/07 09:50:24;;;;;;;7.53;4.00;;;;;31.20;96313.00;;;;8428047;28;20245;-69
2022/09/07 09:54:50;;;;;;;8.75;3.75;;;;;31.30;96311.00;;;;8430218;28;20568;-69
2022/09/07 09:59:12;;;;;;;8.00;4.00;;;;;31.00;96315.00;;;;8430728;28;20225;-69
2022/09/07 10:03:36;;;;;;;8.82;3.45;;;;;31.00;96308.00;;;;8424097;28;20223;-68
2022/09/07 10:08:29;;;;;;;10.57;3.60;;;;;31.10;96303.00;;;;8439268;27;20317;-70
2022/09/07 10:17:33;;;;;;;9.27;4.03;;;;;31.70;96281.00;;;;8427894;28;20218;-67
2022/09/07 10:22:21;;;;;;;6.50;3.78;;;;;32.00;96291.00;;;;8414116;27;20306;-67
2022/09/07 10:26:31;;;;;;;9.73;3.80;;;;;32.50;96294.00;;;;8462125;27;20308;-65
2022/09/07 10:30:41;;;;;;;8.82;3.90;;;;;32.70;96284.00;;;;8427200;28;20219;-65
2022/09/07 10:34:56;;;;;;;9.25;3.88;;;;;32.20;96293.00;;;;8429222;28;20223;-65
2022/09/07 10:39:03;;;;;;;7.97;3.40;;;;;32.10;96292.00;;;;8436452;27;20309;-65
2022/09/07 10:43:26;;;;;;;8.95;3.58;;;;;31.70;96292.00;;;;8433875;27;20222;-65
2022/09/07 10:47:51;;;;;;;6.78;3.30;;;;;31.90;96288.00;;;;8427466;28;20237;-65
2022/09/07 10:52:18;;;;;;;11.20;3.72;;;;;31.80;96298.00;;;;8425521;28;20680;-65
2022/09/07 10:57:03;;;;;;;8.52;3.70;;;;;31.50;96290.00;;;;8426805;28;20237;-65
2022/09/07 11:01:33;;;;;;;9.30;3.53;;;;;31.50;96279.00;;;;8421792;28;20215;-65
2022/09/07 11:06:14;;;;;;;8.48;4.13;;;;;31.60;96276.00;;;;8428244;28;20214;-65
2022/09/07 11:10:26;;;;;;;7.47;3.35;;;;;31.70;96276.00;;;;8428207;28;20219;-65
2022/09/07 11:15:01;;;;;;;10.80;3.80;;;;;31.80;96267.00;;;;8426477;28;20224;-65
2022/09/07 11:19:11;;;;;;;6.18;3.00;;;;;31.40;96273.00;;;;8427912;28;20384;-65
2022/09/07 11:24:14;;;;;;;16.65;5.35;;;;;31.20;96261.00;;;;8427094;28;20217;-65
2022/09/07 11:28:22;;;;;;;9.85;4.05;;;;;31.50;96255.00;;;;8428121;28;20798;-65
2022/09/07 11:32:30;;;;;;;8.15;3.50;;;;;32.10;96241.00;;;;8427463;28;20235;-65
2022/09/07 11:37:01;;;;;;;10.93;3.72;;;;;32.00;96236.00;;;;8428280;28;20220;-65
2022/09/07 11:41:22;;;;;;;8.68;3.50;;;;;32.30;96231.00;;;;8427048;28;20234;-64
2022/09/07 11:45:33;;;;;;;5.55;2.80;;;;;32.60;96233.00;;;;8426901;28;20560;-65
2022/09/07 11:49:38;;;;;;;5.65;2.72;;;;;32.30;96233.00;;;;8427185;28;20223;-65
2022/09/07 11:53:45;;;;;;;3.65;2.70;;;;;32.00;96218.00;;;;8426643;28;20572;-65
2022/09/07 11:58:03;;;;;;;6.00;2.88;;;;;32.30;96230.00;;;;8426921;28;20227;-65
2022/09/07 12:02:45;;;;;;;8.48;3.03;;;;;32.80;96219.00;;;;8427659;28;20215;-65
2022/09/07 12:07:39;;;;;;;9.07;2.90;;;;;33.00;96208.00;;;;8420452;28;20242;-65
2022/09/07 12:12:33;;;;;;;4.68;2.58;;;;;32.90;96197.00;;;;8425858;28;20223;-65
2022/09/07 12:17:00;;;;;;;6.18;2.60;;;;;32.70;96202.00;;;;8322165;28;20282;-64
2022/09/07 12:26:38;;;;;;;6.95;2.28;;;;;32.40;96205.00;;;;8426265;28;20294;-65
2022/09/07 12:30:56;;;;;;;7.80;3.22;;;;;32.60;96202.00;;;;8426481;28;20252;-65
2022/09/07 12:35:00;;;;;;;12.55;2.38;;;;;32.70;96201.00;;;;8433371;28;20230;-65
2022/09/07 12:39:36;;;;;;;6.80;2.45;;;;;32.60;96188.00;;;;8433397;28;20223;-65
2022/09/07 12:43:52;;;;;;;8.75;2.50;;;;;32.40;96194.00;;;;8433311;28;20237;-65
2022/09/07 12:48:01;;;;;;;4.00;2.20;;;;;32.40;96188.00;;;;8433041;28;20223;-65
2022/09/07 12:52:18;;;;;;;10.80;3.15;;;;;32.30;96180.00;;;;8432546;28;20220;-66
2022/09/07 12:56:35;;;;;;;7.00;2.40;;;;;32.50;96187.00;;;;8432105;28;20584;-66
2022/09/07 13:01:05;;;;;;;6.22;2.22;;;;;32.40;96185.00;;;;8432518;28;20226;-66
2022/09/07 13:05:21;;;;;;;6.15;2.47;;;;;32.20;96192.00;;;;8432500;28;20236;-65
2022/09/07 13:09:34;;;;;;;7.20;2.42;;;;;32.10;96175.00;;;;8431565;28;20222;-66
2022/09/07 13:13:38;;;;;;;7.85;2.50;;;;;32.10;96175.00;;;;8432292;28;20218;-66
2022/09/07 13:18:02;;;;;;;5.53;2.20;;;;;32.10;96164.00;;;;8430846;28;20238;-66
2022/09/07 13:22:42;;;;;;;6.68;2.80;;;;;32.10;96159.00;;;;8431777;28;20223;-66
2022/09/07 13:27:37;;;;;;;10.38;2.75;;;;;32.20;96160.00;;;;8431260;28;20216;-66
2022/09/07 13:31:51;;;;;;;9.50;2.70;;;;;32.30;96162.00;;;;8326938;28;20221;-63
2022/09/07 13:41:29;;;;;;;4.60;2.00;;;;;32.80;96155.00;;;;8428508;28;20219;-63
2022/09/07 13:45:48;;;;;;;8.10;2.75;;;;;33.10;96148.00;;;;8429003;28;20223;-64
2022/09/07 13:50:19;;;;;;;5.05;2.13;;;;;33.70;96148.00;;;;8430920;28;20616;-64
2022/09/07 13:59:41;;;;;;;9.85;2.47;;;;;33.70;96135.00;;;;8430501;28;20226;-66
2022/09/07 14:04:20;;;;;;;5.53;2.28;;;;;33.50;96137.00;;;;8429526;28;20313;-66
2022/09/07 14:08:57;;;;;;;3.63;2.30;;;;;33.20;96138.00;;;;8428931;28;20269;-66
2022/09/07 14:13:12;;;;;;;7.72;2.30;;;;;33.00;96136.00;;;;8429911;28;20224;-65
2022/09/07 14:17:19;;;;;;;8.15;2.47;;;;;32.90;96114.00;;;;8428928;28;20252;-66
2022/09/07 14:21:56;;;;;;;6.22;2.58;;;;;32.70;96122.00;;;;8451857;27;20257;-66
2022/09/07 14:26:17;;;;;;;6.82;2.47;;;;;33.20;96118.00;;;;8429269;28;20215;-66
2022/09/07 14:30:26;;;;;;;4.50;2.35;;;;;33.20;96113.00;;;;8429544;28;20214;-66
2022/09/07 14:34:34;;;;;;;5.93;2.28;;;;;33.00;96111.00;;;;8429026;28;20290;-66
2022/09/07 14:39:06;;;;;;;5.68;2.15;;;;;32.50;96112.00;;;;8428775;28;20227;-66
2022/09/07 14:43:28;;;;;;;6.45;2.40;;;;;33.00;96105.00;;;;8416419;28;20708;-66
2022/09/07 14:47:49;;;;;;;11.13;2.30;;;;;33.60;96112.00;;;;8428924;28;20548;-70
2022/09/07 14:52:22;;;;;;;6.90;2.42;;;;;33.70;96109.00;;;;8427792;28;20215;-69
2022/09/07 14:57:01;;;;;;;10.13;2.22;;;;;33.60;96110.00;;;;8427784;28;20226;-70
2022/09/07 15:01:35;;;;;;;8.35;2.80;;;;;33.40;96110.00;;;;8445307;27;20231;-66
2022/09/07 15:06:12;;;;;;;4.97;2.25;;;;;33.10;96107.00;;;;8427614;28;20243;-65
2022/09/07 15:11:01;;;;;;;7.18;2.00;;;;;33.00;96106.00;;;;8424771;28;20214;-66
2022/09/07 15:15:26;;;;;;;6.75;2.65;;;;;32.90;96100.00;;;;8426749;28;20218;-67
2022/09/07 15:19:31;;;;;;;7.18;2.70;;;;;32.70;96094.00;;;;8426642;28;20223;-66
2022/09/07 15:24:05;;;;;;;11.18;2.60;;;;;32.40;96082.00;;;;8424764;28;20223;-68
2022/09/07 15:28:41;;;;;;;10.98;2.70;;;;;32.30;96083.00;;;;8425341;28;20215;-66
2022/09/07 15:33:16;;;;;;;10.65;2.72;;;;;32.40;96071.00;;;;8424054;28;20706;-68
2022/09/07 15:48:14;;;;;;;5.97;2.53;;;;;33.10;96052.00;;;;8426665;28;20211;-67
2022/09/07 15:52:44;;;;;;;7.10;2.20;;;;;33.30;96051.00;;;;8424445;28;20503;-68
2022/09/07 15:57:22;;;;;;;5.13;2.25;;;;;33.30;96041.00;;;;8425667;28;20234;-68
2022/09/07 16:01:57;;;;;;;7.95;2.58;;;;;33.30;96037.00;;;;8425027;28;20219;-67
2022/09/07 16:06:31;;;;;;;5.47;2.30;;;;;33.40;96044.00;;;;8428234;28;20633;-67
2022/09/07 16:10:40;;;;;;;5.32;2.22;;;;;33.40;96044.00;;;;8433144;28;20230;-66
2022/09/07 16:14:43;;;;;;;7.78;2.60;;;;;33.30;96052.00;;;;8433690;28;20227;-67
2022/09/07 16:19:16;;;;;;;5.10;2.67;;;;;33.30;96053.00;;;;8432979;28;20249;-67
2022/09/07 16:23:54;;;;;;;5.57;2.65;;;;;33.20;96050.00;;;;8432923;28;20219;-67
2022/09/07 16:28:32;;;;;;;4.20;2.13;;;;;33.00;96053.00;;;;8428320;28;20219;-66
2022/09/07 16:33:06;;;;;;;4.15;2.42;;;;;33.00;96049.00;;;;8430915;28;20314;-64
2022/09/07 16:37:10;;;;;;;8.70;2.53;;;;;33.00;96043.00;;;;8432670;28;20272;-64
2022/09/07 16:41:14;;;;;;;5.97;2.03;;;;;32.50;96041.00;;;;8432576;28;20268;-65
2022/09/07 16:45:20;;;;;;;7.18;2.13;;;;;31.70;96040.00;;;;8432373;28;20549;-65
2022/09/07 16:49:56;;;;;;;5.80;2.58;;;;;31.00;96034.00;;;;8429724;28;20215;-65
2022/09/07 16:54:00;;;;;;;3.45;2.20;;;;;30.40;96039.00;;;;8431172;28;20235;-65
2022/09/07 16:58:03;;;;;;;5.60;2.20;;;;;30.00;96030.00;;;;8431564;28;20264;-65
2022/09/07 17:02:40;;;;;;;11.82;2.55;;;;;29.50;96020.00;;;;8431596;28;20217;-64
2022/09/07 17:07:17;;;;;;;8.13;2.75;;;;;29.10;96028.00;;;;8431083;28;20310;-64
2022/09/07 17:11:53;;;;;;;12.07;2.55;;;;;28.70;96024.00;;;;8431993;28;20215;-64
2022/09/07 17:16:31;;;;;;;5.82;2.55;;;;;28.30;96013.00;;;;8431178;28;20224;-64
2022/09/07 17:21:07;;;;;;;8.57;2.60;;;;;27.70;96013.00;;;;8429417;28;20212;-64
2022/09/07 17:25:49;;;;;;;7.80;2.70;;;;;27.20;96010.00;;;;8431265;28;20235;-64
2022/09/07 17:30:19;;;;;;;13.15;2.97;;;;;26.70;96018.00;;;;8428892;28;20212;-64
2022/09/07 17:34:59;;;;;;;8.93;2.63;;;;;26.30;96016.00;;;;8429664;28;20230;-64
2022/09/07 17:39:40;;;;;;;8.18;3.35;;;;;25.80;96027.00;;;;8431187;28;20215;-64
2022/09/07 17:44:14;;;;;;;13.60;3.00;;;;;25.40;96015.00;;;;8429031;28;20247;-63
2022/09/07 17:48:53;;;;;;;6.72;2.47;;;;;25.10;96024.00;;;;8430334;28;20211;-64
2022/09/07 17:53:26;;;;;;;5.28;2.67;;;;;24.70;96019.00;;;;8429996;28;20215;-64
2022/09/07 17:58:05;;;;;;;6.70;3.00;;;;;24.40;96018.00;;;;8430169;28;20556;-63
2022/09/07 18:02:38;;;;;;;7.93;2.72;;;;;24.20;96021.00;;;;8420689;28;20333;-63
2022/09/07 18:07:15;;;;;;;3.90;2.92;;;;;24.00;96024.00;;;;8430878;28;20222;-64
2022/09/07 18:11:53;;;;;;;6.07;2.65;;;;;23.80;96029.00;;;;8429400;28;20215;-65
2022/09/07 18:16:29;;;;;;;6.90;3.03;;;;;23.60;96035.00;;;;8428731;28;20215;-65
2022/09/07 18:21:12;;;;;;;6.28;3.15;;;;;23.40;96035.00;;;;8429713;28;20250;-65
2022/09/07 18:25:43;;;;;;;8.85;2.72;;;;;23.20;96029.00;;;;8429202;28;20602;-64
2022/09/07 18:30:19;;;;;;;6.25;3.20;;;;;23.10;96023.00;;;;8428311;28;20219;-65
2022/09/07 18:34:23;;;;;;;6.43;2.75;;;;;22.90;96017.00;;;;8429690;28;20222;-64
2022/09/07 18:39:00;;;;;;;11.18;2.95;;;;;22.70;96025.00;;;;8428593;28;20556;-64
2022/09/07 18:43:34;;;;;;;5.78;2.90;;;;;22.60;96030.00;;;;8428417;28;20215;-64
2022/09/07 18:48:12;;;;;;;8.55;3.67;;;;;22.50;96045.00;;;;8429093;28;20238;-65
2022/09/07 18:52:49;;;;;;;5.05;3.00;;;;;22.40;96036.00;;;;8428777;28;20227;-65
2022/09/07 18:56:55;;;;;;;6.22;3.35;;;;;22.40;96028.00;;;;8414726;28;20243;-64
2022/09/07 19:01:31;;;;;;;7.28;3.10;;;;;22.40;96025.00;;;;8447928;27;20302;-66
2022/09/07 19:06:09;;;;;;;4.68;3.13;;;;;22.30;96023.00;;;;8427376;28;20226;-64
2022/09/07 19:10:43;;;;;;;6.85;3.28;;;;;22.20;96016.00;;;;8425392;28;20648;-65
2022/09/07 19:15:22;;;;;;;10.18;3.40;;;;;22.10;96016.00;;;;8428086;28;20238;-65
2022/09/07 19:19:56;;;;;;;12.50;3.55;;;;;22.10;96021.00;;;;8426258;28;20223;-66
2022/09/07 19:24:33;;;;;;;7.55;3.03;;;;;22.20;96023.00;;;;8426610;28;20222;-69
2022/09/07 19:29:14;;;;;;;4.55;2.90;;;;;22.20;96030.00;;;;8428576;28;20257;-68
2022/09/07 19:33:47;;;;;;;5.32;3.05;;;;;22.10;96031.00;;;;8420479;28;20222;-67
2022/09/07 19:37:52;;;;;;;7.50;3.80;;;;;22.10;96024.00;;;;8425385;28;20226;-66
2022/09/07 19:41:55;;;;;;;6.95;3.53;;;;;22.10;96026.00;;;;8425305;28;20226;-66
2022/09/07 19:45:58;;;;;;;6.25;3.40;;;;;22.10;96024.00;;;;8426881;28;20218;-67
2022/09/07 19:50:35;;;;;;;5.95;3.30;;;;;22.00;96018.00;;;;8426999;28;20226;-68
2022/09/07 19:55:14;;;;;;;10.43;3.58;;;;;22.00;96021.00;;;;8427338;28;20219;-67
2022/09/07 19:59:18;;;;;;;7.57;3.28;;;;;22.00;96024.00;;;;8426694;28;20226;-66
2022/09/07 20:03:21;;;;;;;7.20;3.38;;;;;21.90;96016.00;;;;8427495;28;20314;-65
2022/09/07 20:07:58;;;;;;;7.13;3.67;;;;;21.80;96005.00;;;;8426958;28;20219;-67
2022/09/07 20:12:37;;;;;;;8.30;3.25;;;;;21.80;96006.00;;;;8425692;28;20227;-67
2022/09/07 20:16:40;;;;;;;5.35;3.42;;;;;21.80;96011.00;;;;8426434;28;20222;-67
2022/09/07 20:21:19;;;;;;;6.00;3.25;;;;;21.80;96015.00;;;;8425109;28;20552;-67
2022/09/07 20:25:57;;;;;;;6.93;3.85;;;;;21.70;96011.00;;;;8425738;28;20238;-67
2022/09/07 20:30:01;;;;;;;10.20;3.70;;;;;21.60;95998.00;;;;8426158;28;20271;-68
2022/09/07 20:34:06;;;;;;;8.93;3.85;;;;;21.40;95987.00;;;;8426300;28;20227;-68
2022/09/07 20:38:40;;;;;;;7.00;3.88;;;;;21.20;95995.00;;;;8426028;28;20315;-67
2022/09/07 20:42:43;;;;;;;6.38;3.65;;;;;21.10;96005.00;;;;8426736;28;20239;-67
2022/09/07 20:46:48;;;;;;;9.02;3.58;;;;;21.00;96001.00;;;;8426162;28;20281;-67
2022/09/07 20:51:24;;;;;;;4.97;3.45;;;;;21.00;95991.00;;;;8426185;28;20224;-66
2022/09/07 20:56:02;;;;;;;7.65;3.90;;;;;21.00;95985.00;;;;8432733;28;20288;-71
2022/09/07 21:00:36;;;;;;;5.40;3.47;;;;;21.00;95961.00;;;;8431298;28;20231;-72
2022/09/07 21:04:42;;;;;;;9.00;3.53;;;;;21.00;95960.00;;;;8432288;28;20302;-71
2022/09/07 21:09:15;;;;;;;9.63;4.05;;;;;20.90;95947.00;;;;8432755;28;20262;-71
2022/09/07 21:13:18;;;;;;;6.32;4.05;;;;;20.80;95944.00;;;;8431967;28;20544;-71
2022/09/07 21:17:55;;;;;;;6.40;3.88;;;;;20.80;95946.00;;;;8431668;28;20223;-71
2022/09/07 21:22:03;;;;;;;10.32;3.78;;;;;20.80;95947.00;;;;8432874;28;20617;-71
2022/09/07 21:26:36;;;;;;;8.40;4.32;;;;;20.80;95941.00;;;;8428670;28;20223;-72
2022/09/07 21:30:39;;;;;;;5.43;3.40;;;;;20.80;95935.00;;;;8427682;28;20660;-71
2022/09/07 21:34:43;;;;;;;11.45;4.13;;;;;20.90;95936.00;;;;8418998;27;20244;-71
2022/09/07 21:39:19;;;;;;;6.60;3.83;;;;;20.90;95934.00;;;;8446446;27;20653;-71
2022/09/07 21:43:24;;;;;;;7.63;3.90;;;;;21.00;95935.00;;;;8416764;28;20268;-71
2022/09/07 21:47:27;;;;;;;8.77;4.13;;;;;21.10;95923.00;;;;8447022;27;20268;-71
2022/09/07 21:52:03;;;;;;;14.82;4.35;;;;;21.10;95926.00;;;;8434843;27;20213;-71
2022/09/07 21:56:10;;;;;;;7.47;3.78;;;;;21.30;95924.00;;;;8453010;27;20685;-71
2022/09/07 22:00:45;;;;;;;14.27;3.92;;;;;21.40;95937.00;;;;8427431;27;20245;-72
2022/09/07 22:04:48;;;;;;;6.53;3.33;;;;;21.60;95933.00;;;;8427264;28;20253;-71
2022/09/07 22:08:52;;;;;;;6.35;3.35;;;;;21.70;95924.00;;;;8423914;28;20284;-71
2022/09/07 22:12:55;;;;;;;10.63;3.92;;;;;21.80;95929.00;;;;8427514;28;20227;-71
2022/09/07 22:17:00;;;;;;;8.38;3.08;;;;;21.90;95929.00;;;;8427571;28;20606;-71
2022/09/07 22:21:05;;;;;;;14.40;4.55;;;;;22.00;95931.00;;;;8421760;28;20306;-72